Time;durP1;ratioP1;P1;durP2;ratioP2;P2;SDS_P1;SDS_P2;PMS_P1;PMS_P2;Temp;Humidity;BMP_temperature;BMP_pressure;BME280_temperature;BME280_humidity;BME280_pressure;Samples;Min_cycle;Max_cycle;Signal;HPM_P1;HPM_P2
2023/09/07 00:01:48;;;;;;;5.38;3.15;;;19.70;99.90;;;;;;5125022;27;20447;-64
2023/09/07 00:04:14;;;;;;;4.72;3.00;;;19.70;99.90;;;;;;5121631;27;20409;-64
2023/09/07 00:06:43;;;;;;;5.15;3.10;;;19.70;99.90;;;;;;5134508;27;20031;-64
2023/09/07 00:09:11;;;;;;;4.72;3.15;;;19.60;99.90;;;;;;5133872;27;20385;-64
2023/09/07 00:11:37;;;;;;;5.63;3.42;;;19.60;99.90;;;;;;5133035;27;20125;-64
2023/09/07 00:14:02;;;;;;;5.80;3.28;;;19.60;99.90;;;;;;5138722;27;20160;-64
2023/09/07 00:16:28;;;;;;;5.53;3.38;;;19.60;99.90;;;;;;5099480;27;20035;-64
2023/09/07 00:18:54;;;;;;;5.38;3.17;;;19.60;99.90;;;;;;5135571;27;20122;-64
2023/09/07 00:21:19;;;;;;;4.35;3.30;;;19.60;99.90;;;;;;5134170;27;20438;-64
2023/09/07 00:23:45;;;;;;;3.45;3.10;;;19.60;99.90;;;;;;5130463;27;20524;-64
2023/09/07 00:26:12;;;;;;;3.47;3.05;;;19.50;99.90;;;;;;5114263;27;20050;-63
2023/09/07 00:28:38;;;;;;;4.20;3.08;;;19.50;99.90;;;;;;5116164;27;20042;-64
2023/09/07 00:31:04;;;;;;;5.35;3.50;;;19.50;99.90;;;;;;5151944;27;20034;-64
2023/09/07 00:33:29;;;;;;;6.43;3.60;;;19.50;99.90;;;;;;5123983;27;20113;-64
2023/09/07 00:35:55;;;;;;;6.35;3.42;;;19.50;99.90;;;;;;5117723;27;20401;-64
2023/09/07 00:38:20;;;;;;;4.53;3.10;;;19.50;99.90;;;;;;5133162;27;20039;-64
2023/09/07 00:40:46;;;;;;;4.75;2.90;;;19.40;99.90;;;;;;5114426;27;20038;-64
2023/09/07 00:43:12;;;;;;;3.55;3.10;;;19.40;99.90;;;;;;5115477;27;20031;-63
2023/09/07 00:45:38;;;;;;;5.78;3.08;;;19.50;99.90;;;;;;5127225;27;20439;-63
2023/09/07 00:48:05;;;;;;;4.20;3.25;;;19.40;99.90;;;;;;5117101;27;20046;-63
2023/09/07 00:50:31;;;;;;;5.05;3.38;;;19.40;99.90;;;;;;5120826;27;20114;-63
2023/09/07 00:52:59;;;;;;;5.70;3.15;;;19.40;99.90;;;;;;5114537;27;20042;-64
2023/09/07 00:55:27;;;;;;;3.20;2.85;;;19.40;99.90;;;;;;5126342;27;20042;-63
2023/09/07 00:57:54;;;;;;;10.38;3.58;;;19.40;99.90;;;;;;5134683;27;20424;-64
2023/09/07 01:00:20;;;;;;;4.13;3.03;;;19.40;99.90;;;;;;5131065;27;20046;-64
2023/09/07 01:02:46;;;;;;;4.00;2.90;;;19.40;99.90;;;;;;5116493;27;20035;-63
2023/09/07 01:05:12;;;;;;;4.38;2.83;;;19.40;99.90;;;;;;5114560;27;20188;-64
2023/09/07 01:07:43;;;;;;;7.95;3.20;;;19.40;99.90;;;;;;5114805;27;20122;-64
2023/09/07 01:10:08;;;;;;;3.63;3.20;;;19.40;99.90;;;;;;5134536;27;20122;-64
2023/09/07 01:12:34;;;;;;;4.65;3.30;;;19.40;99.90;;;;;;5134366;27;20122;-63
2023/09/07 01:15:00;;;;;;;3.75;3.22;;;19.40;99.90;;;;;;5113689;27;20047;-64
2023/09/07 01:17:27;;;;;;;6.28;3.10;;;19.40;99.90;;;;;;5128150;27;20038;-64
2023/09/07 01:19:54;;;;;;;4.38;3.58;;;19.40;99.90;;;;;;5152753;27;20039;-64
2023/09/07 01:22:24;;;;;;;5.38;3.30;;;19.40;99.90;;;;;;5119506;27;20054;-63
2023/09/07 01:24:50;;;;;;;5.75;3.20;;;19.40;99.90;;;;;;5113263;27;20047;-64
2023/09/07 01:27:16;;;;;;;3.72;3.30;;;19.40;99.90;;;;;;5121268;27;20035;-63
2023/09/07 01:29:42;;;;;;;4.30;3.15;;;19.30;99.90;;;;;;5113400;27;20043;-64
2023/09/07 01:32:09;;;;;;;4.47;3.13;;;19.30;99.90;;;;;;5115644;27;20039;-64
2023/09/07 01:34:36;;;;;;;4.20;3.25;;;19.30;99.90;;;;;;5150151;27;20046;-64
2023/09/07 01:37:01;;;;;;;6.70;3.45;;;19.30;99.90;;;;;;5125596;27;20091;-64
2023/09/07 01:39:27;;;;;;;4.35;3.63;;;19.30;99.90;;;;;;5113501;27;20047;-64
2023/09/07 01:41:53;;;;;;;4.63;3.20;;;19.30;99.90;;;;;;5110037;27;20455;-63
2023/09/07 01:44:18;;;;;;;6.53;3.10;;;19.30;99.90;;;;;;5114175;27;20055;-64
2023/09/07 01:46:44;;;;;;;4.80;3.20;;;19.30;99.90;;;;;;5152231;27;20042;-64
2023/09/07 01:49:09;;;;;;;5.50;3.67;;;19.30;99.90;;;;;;5124418;27;20046;-64
2023/09/07 01:51:35;;;;;;;5.55;3.20;;;19.30;99.90;;;;;;5131431;27;20039;-64
2023/09/07 01:54:01;;;;;;;4.40;3.70;;;19.30;99.90;;;;;;5128839;27;20034;-64
2023/09/07 01:56:26;;;;;;;6.43;3.35;;;19.20;99.90;;;;;;5133474;27;20060;-63
2023/09/07 01:58:52;;;;;;;4.38;3.10;;;19.20;99.90;;;;;;5130086;27;20408;-64
2023/09/07 02:01:22;;;;;;;6.38;3.45;;;19.20;99.90;;;;;;5131251;27;20085;-63
2023/09/07 02:03:48;;;;;;;5.30;3.40;;;19.20;99.90;;;;;;5136464;27;20512;-64
2023/09/07 02:06:13;;;;;;;5.35;3.25;;;19.10;99.90;;;;;;5098111;27;20074;-64
2023/09/07 02:08:39;;;;;;;6.13;3.47;;;19.10;99.90;;;;;;5112767;27;20070;-64
2023/09/07 02:11:05;;;;;;;3.78;3.17;;;19.00;99.90;;;;;;5112585;27;20040;-63
2023/09/07 02:13:31;;;;;;;5.22;3.80;;;19.00;99.90;;;;;;5096077;27;20403;-64
2023/09/07 02:15:57;;;;;;;4.85;3.85;;;18.90;99.90;;;;;;5114986;27;20130;-64
2023/09/07 02:18:22;;;;;;;3.80;3.40;;;18.90;99.90;;;;;;5115591;27;20132;-63
2023/09/07 02:20:48;;;;;;;4.57;3.22;;;18.90;99.90;;;;;;5112717;27;20046;-64
2023/09/07 02:23:14;;;;;;;6.13;3.60;;;18.90;99.90;;;;;;5112515;27;20095;-63
2023/09/07 02:25:41;;;;;;;4.75;3.67;;;18.80;99.90;;;;;;5117785;27;20445;-64
2023/09/07 02:28:06;;;;;;;5.63;3.38;;;18.80;99.90;;;;;;5133343;27;20050;-64
2023/09/07 02:30:32;;;;;;;5.07;3.67;;;18.90;99.90;;;;;;5129064;27;20406;-64
2023/09/07 02:32:58;;;;;;;4.13;3.55;;;18.80;99.90;;;;;;5131391;27;20035;-64
2023/09/07 02:35:23;;;;;;;4.88;3.40;;;18.70;99.90;;;;;;5132644;27;20064;-64
2023/09/07 02:37:49;;;;;;;6.78;4.15;;;18.70;99.90;;;;;;5117096;27;20043;-65
2023/09/07 02:40:15;;;;;;;6.05;4.05;;;18.70;99.90;;;;;;5114150;27;20047;-64
2023/09/07 02:42:42;;;;;;;6.40;3.78;;;18.70;99.90;;;;;;5112515;27;20051;-64
2023/09/07 02:45:11;;;;;;;4.93;3.42;;;18.70;99.90;;;;;;5118069;27;20078;-64
2023/09/07 02:47:38;;;;;;;4.00;3.60;;;18.60;99.90;;;;;;5139135;27;20049;-63
2023/09/07 02:50:05;;;;;;;4.57;3.60;;;18.60;99.90;;;;;;5115673;27;20096;-64
2023/09/07 02:52:31;;;;;;;5.05;3.47;;;18.50;99.90;;;;;;5125874;27;20061;-64
2023/09/07 02:54:56;;;;;;;4.07;3.25;;;18.50;99.90;;;;;;5121596;27;20068;-64
2023/09/07 02:57:22;;;;;;;6.63;3.75;;;18.50;99.90;;;;;;5126525;27;20042;-64
2023/09/07 02:59:47;;;;;;;5.03;3.40;;;18.50;99.90;;;;;;5133214;27;20078;-64
2023/09/07 03:02:13;;;;;;;3.85;3.47;;;18.50;99.90;;;;;;5135817;27;20067;-63
2023/09/07 03:04:38;;;;;;;4.70;3.63;;;18.40;99.90;;;;;;5120552;27;20073;-64
2023/09/07 03:07:04;;;;;;;4.07;3.60;;;18.40;99.90;;;;;;5115995;27;20558;-64
2023/09/07 03:09:30;;;;;;;5.50;3.38;;;18.40;99.90;;;;;;5100534;27;20051;-64
2023/09/07 03:11:55;;;;;;;4.35;3.50;;;18.30;99.90;;;;;;5116542;27;20415;-63
2023/09/07 03:14:21;;;;;;;5.07;3.30;;;18.30;99.90;;;;;;5125894;27;20067;-63
2023/09/07 03:16:50;;;;;;;8.23;3.45;;;18.30;99.90;;;;;;5123289;27;20039;-63
2023/09/07 03:19:16;;;;;;;4.35;3.50;;;18.20;99.90;;;;;;5115899;27;20049;-64
2023/09/07 03:21:42;;;;;;;3.92;3.47;;;18.20;99.90;;;;;;5131795;27;20103;-63
2023/09/07 03:24:07;;;;;;;4.88;3.75;;;18.10;99.90;;;;;;5136064;27;20061;-63
2023/09/07 03:26:34;;;;;;;6.00;3.80;;;18.10;99.90;;;;;;5152963;27;20043;-64
2023/09/07 03:29:00;;;;;;;5.10;3.78;;;18.00;99.90;;;;;;5101346;27;20042;-63
2023/09/07 03:31:26;;;;;;;6.03;3.95;;;18.00;99.90;;;;;;5129889;27;20039;-64
2023/09/07 03:33:51;;;;;;;3.90;3.50;;;17.90;99.90;;;;;;5136134;27;20042;-64
2023/09/07 03:36:17;;;;;;;4.88;3.42;;;17.90;99.90;;;;;;5119867;27;20102;-63
2023/09/07 03:38:43;;;;;;;3.63;3.20;;;17.80;99.90;;;;;;5116824;27;20035;-63
2023/09/07 03:41:09;;;;;;;4.28;3.70;;;17.80;99.90;;;;;;5134684;27;20034;-64
2023/09/07 03:43:34;;;;;;;4.18;3.70;;;17.70;99.90;;;;;;5136149;27;20062;-63
2023/09/07 03:46:00;;;;;;;4.32;3.92;;;17.70;99.90;;;;;;5103971;27;20039;-64
2023/09/07 03:48:26;;;;;;;4.90;4.13;;;17.70;99.90;;;;;;5135659;27;20053;-64
2023/09/07 03:50:51;;;;;;;5.20;4.32;;;17.70;99.90;;;;;;5154326;27;20030;-64
2023/09/07 03:53:17;;;;;;;7.63;3.90;;;17.70;99.90;;;;;;5116836;27;20035;-64
2023/09/07 03:55:44;;;;;;;6.28;4.25;;;17.70;99.90;;;;;;5115804;27;20065;-63
2023/09/07 03:58:10;;;;;;;5.82;4.60;;;17.70;99.90;;;;;;5100265;27;20074;-63
2023/09/07 04:00:40;;;;;;;6.85;4.65;;;17.70;99.90;;;;;;5114886;27;20038;-64
2023/09/07 04:03:06;;;;;;;6.07;4.50;;;17.70;99.90;;;;;;5100214;27;20111;-64
2023/09/07 04:05:31;;;;;;;5.90;4.15;;;17.60;99.90;;;;;;5134102;27;20072;-63
2023/09/07 04:07:57;;;;;;;5.30;4.80;;;17.70;99.90;;;;;;5120669;27;20039;-63
2023/09/07 04:10:22;;;;;;;6.63;4.53;;;17.70;99.90;;;;;;5118140;27;20038;-64
2023/09/07 04:12:48;;;;;;;6.78;4.70;;;17.70;99.90;;;;;;5129876;27;20065;-64
2023/09/07 04:15:14;;;;;;;6.00;5.05;;;17.70;99.90;;;;;;5134774;27;20027;-63
2023/09/07 04:17:40;;;;;;;6.68;4.70;;;17.70;99.90;;;;;;5114655;27;20035;-64
2023/09/07 04:20:08;;;;;;;5.75;5.05;;;17.70;99.90;;;;;;5131771;27;20047;-64
2023/09/07 04:22:33;;;;;;;6.20;4.63;;;17.70;99.90;;;;;;5131800;27;20078;-64
2023/09/07 04:24:59;;;;;;;5.30;4.80;;;17.70;99.90;;;;;;5110118;27;20075;-63
2023/09/07 04:27:25;;;;;;;5.28;4.78;;;17.70;99.90;;;;;;5111645;28;20528;-63
2023/09/07 04:29:51;;;;;;;5.45;4.78;;;17.70;99.90;;;;;;5107966;28;20405;-63
2023/09/07 04:32:16;;;;;;;6.43;5.00;;;17.70;99.90;;;;;;5112448;28;20043;-64
2023/09/07 04:34:42;;;;;;;6.10;5.13;;;17.70;99.90;;;;;;5107418;27;20398;-63
2023/09/07 04:37:08;;;;;;;7.10;5.07;;;17.70;99.90;;;;;;5111437;28;20452;-64
2023/09/07 04:39:33;;;;;;;6.45;4.95;;;17.70;99.90;;;;;;5105398;27;20061;-63
2023/09/07 04:41:59;;;;;;;7.63;5.18;;;17.70;99.90;;;;;;5112300;28;20046;-64
2023/09/07 04:44:27;;;;;;;5.95;5.00;;;17.70;99.90;;;;;;5110096;28;20425;-63
2023/09/07 04:46:55;;;;;;;5.90;4.90;;;17.70;99.90;;;;;;5085891;28;20055;-64
2023/09/07 04:49:21;;;;;;;5.78;4.80;;;17.70;99.90;;;;;;5089887;28;20052;-64
2023/09/07 04:51:46;;;;;;;9.00;5.32;;;17.70;99.90;;;;;;5091885;28;20058;-64
2023/09/07 04:54:13;;;;;;;5.10;4.68;;;17.70;99.90;;;;;;5110744;28;20031;-64
2023/09/07 04:56:38;;;;;;;8.18;5.30;;;17.60;99.90;;;;;;5090573;28;20116;-63
2023/09/07 04:59:04;;;;;;;6.40;5.10;;;17.60;99.90;;;;;;5110707;28;20111;-64
2023/09/07 05:01:31;;;;;;;7.47;5.78;;;17.60;99.90;;;;;;5102792;27;20035;-63
2023/09/07 05:03:57;;;;;;;8.40;5.63;;;17.60;99.90;;;;;;5109955;28;20097;-63
2023/09/07 05:06:22;;;;;;;6.18;5.47;;;17.50;99.90;;;;;;5109228;28;20562;-64
2023/09/07 05:08:48;;;;;;;11.25;5.85;;;17.60;99.90;;;;;;5108083;28;20085;-64
2023/09/07 05:11:14;;;;;;;6.43;5.22;;;17.60;99.90;;;;;;5123811;27;20122;-63
2023/09/07 05:13:39;;;;;;;8.02;5.38;;;17.60;99.90;;;;;;5110571;28;20123;-63
2023/09/07 05:16:05;;;;;;;6.65;5.43;;;17.60;99.90;;;;;;5108144;28;20051;-63
2023/09/07 05:18:31;;;;;;;7.75;5.40;;;17.60;99.90;;;;;;5111569;28;20173;-64
2023/09/07 05:20:57;;;;;;;5.72;5.03;;;17.50;99.90;;;;;;5107224;28;20039;-64
2023/09/07 05:23:24;;;;;;;5.72;5.20;;;17.60;99.90;;;;;;5106639;28;20047;-64
2023/09/07 05:25:54;;;;;;;6.40;5.45;;;17.60;99.90;;;;;;5110723;28;20040;-63
2023/09/07 05:28:21;;;;;;;6.50;5.40;;;17.60;99.90;;;;;;5099788;28;20035;-64
2023/09/07 05:30:47;;;;;;;7.40;5.65;;;17.70;99.90;;;;;;5091977;28;20035;-63
2023/09/07 05:33:16;;;;;;;7.20;5.05;;;17.70;99.90;;;;;;5098680;28;20421;-63
2023/09/07 05:35:42;;;;;;;7.25;5.22;;;17.70;99.90;;;;;;5100213;28;20043;-64
2023/09/07 05:38:08;;;;;;;7.43;5.13;;;17.70;99.90;;;;;;5092592;28;20051;-64
2023/09/07 05:40:36;;;;;;;7.40;5.25;;;17.80;99.90;;;;;;5077673;28;20171;-64
2023/09/07 05:43:03;;;;;;;6.63;5.28;;;17.80;99.90;;;;;;5089248;28;20039;-63
2023/09/07 05:45:39;;;;;;;8.65;5.38;;;17.90;99.90;;;;;;5096166;28;20448;-63
2023/09/07 05:48:06;;;;;;;8.68;5.20;;;17.90;99.90;;;;;;5091175;28;20032;-63
2023/09/07 05:50:34;;;;;;;5.70;5.13;;;17.90;99.90;;;;;;5095341;28;20529;-63
2023/09/07 05:52:59;;;;;;;8.23;5.28;;;18.00;99.90;;;;;;5095974;28;20046;-63
2023/09/07 05:55:25;;;;;;;7.47;4.90;;;18.00;99.90;;;;;;5090514;28;20126;-63
2023/09/07 05:57:51;;;;;;;6.90;5.20;;;18.10;99.90;;;;;;5089104;28;20032;-63
2023/09/07 06:00:17;;;;;;;5.47;4.97;;;18.10;99.90;;;;;;5089244;28;20059;-63
2023/09/07 06:02:44;;;;;;;6.93;4.78;;;18.20;99.90;;;;;;5089411;28;20483;-63
2023/09/07 06:05:10;;;;;;;7.03;4.95;;;18.20;99.90;;;;;;5101229;28;20067;-63
2023/09/07 06:07:36;;;;;;;5.45;4.72;;;18.30;99.90;;;;;;5089930;28;20044;-63
2023/09/07 06:10:02;;;;;;;7.35;4.85;;;18.30;99.90;;;;;;5089042;28;20040;-64
2023/09/07 06:12:27;;;;;;;5.60;4.97;;;18.40;99.90;;;;;;5089162;28;20053;-64
2023/09/07 06:14:53;;;;;;;5.95;4.90;;;18.40;99.90;;;;;;5107826;28;20510;-63
2023/09/07 06:17:19;;;;;;;6.47;4.95;;;18.50;99.90;;;;;;5104159;28;20104;-64
2023/09/07 06:19:45;;;;;;;6.18;4.88;;;18.60;99.90;;;;;;5091528;28;20523;-64
2023/09/07 06:22:11;;;;;;;6.90;4.80;;;18.70;99.90;;;;;;5097427;27;20227;-63
2023/09/07 06:24:37;;;;;;;5.25;4.75;;;18.80;99.90;;;;;;5130594;27;20126;-63
2023/09/07 06:27:03;;;;;;;6.03;4.47;;;18.90;99.90;;;;;;5115557;27;20495;-64
2023/09/07 06:29:28;;;;;;;5.63;4.72;;;19.00;99.90;;;;;;5151372;27;20070;-64
2023/09/07 06:31:54;;;;;;;6.35;4.75;;;19.10;99.90;;;;;;5132263;27;20078;-64
2023/09/07 06:34:19;;;;;;;9.40;5.53;;;19.20;99.90;;;;;;5125655;27;20119;-63
2023/09/07 06:36:45;;;;;;;9.25;5.03;;;19.40;99.90;;;;;;5124276;27;20057;-64
2023/09/07 06:39:11;;;;;;;7.22;4.95;;;19.50;99.90;;;;;;5098758;27;20051;-63
2023/09/07 06:41:36;;;;;;;7.65;5.18;;;19.60;99.90;;;;;;5134962;27;20501;-63
2023/09/07 06:44:02;;;;;;;5.40;4.90;;;19.80;99.90;;;;;;5116480;27;20035;-63
2023/09/07 06:46:28;;;;;;;8.50;5.22;;;19.90;99.90;;;;;;5118040;27;20043;-63
2023/09/07 06:48:53;;;;;;;8.10;4.72;;;20.10;99.90;;;;;;5116489;27;20122;-62
2023/09/07 06:51:19;;;;;;;7.32;4.75;;;20.20;99.90;;;;;;5116171;27;20114;-63
2023/09/07 06:53:44;;;;;;;6.03;4.63;;;20.30;99.90;;;;;;5116668;27;20042;-63
2023/09/07 06:56:10;;;;;;;7.07;4.82;;;20.40;99.90;;;;;;5118216;27;20031;-63
2023/09/07 06:58:36;;;;;;;7.80;4.95;;;20.50;99.90;;;;;;5099229;27;20477;-63
2023/09/07 07:01:02;;;;;;;6.15;5.28;;;20.60;99.90;;;;;;5115779;27;20049;-63
2023/09/07 07:03:29;;;;;;;7.65;5.10;;;20.80;99.90;;;;;;5116094;27;20200;-63
2023/09/07 07:05:56;;;;;;;8.32;4.90;;;20.90;99.90;;;;;;5134191;27;20050;-63
2023/09/07 07:08:22;;;;;;;6.85;4.72;;;21.00;99.90;;;;;;5120086;27;20084;-63
2023/09/07 07:10:47;;;;;;;5.28;4.70;;;21.20;99.90;;;;;;5134247;27;20076;-63
2023/09/07 07:13:13;;;;;;;6.20;4.50;;;21.20;99.90;;;;;;5120640;27;20054;-63
2023/09/07 07:15:39;;;;;;;6.28;5.20;;;21.30;99.90;;;;;;5118330;27;20050;-63
2023/09/07 07:18:10;;;;;;;5.60;4.88;;;21.50;99.90;;;;;;5118331;27;20043;-63
2023/09/07 07:20:41;;;;;;;7.07;4.82;;;21.50;99.90;;;;;;5115497;27;20039;-64
2023/09/07 07:23:07;;;;;;;5.47;4.97;;;21.60;99.90;;;;;;5134345;27;20485;-63
2023/09/07 07:25:33;;;;;;;7.80;5.22;;;21.70;99.90;;;;;;5116030;27;20111;-63
2023/09/07 07:28:00;;;;;;;6.75;4.95;;;21.80;99.90;;;;;;5134592;27;20039;-63
2023/09/07 07:30:29;;;;;;;5.43;4.88;;;21.90;99.90;;;;;;5116049;27;20525;-64
2023/09/07 07:32:56;;;;;;;5.93;5.00;;;21.90;99.90;;;;;;5115970;27;20035;-64
2023/09/07 07:35:22;;;;;;;8.27;4.43;;;22.00;99.90;;;;;;5115708;27;20045;-63
2023/09/07 07:37:48;;;;;;;8.93;5.03;;;22.10;99.90;;;;;;5115780;27;20035;-64
2023/09/07 07:40:14;;;;;;;7.05;4.82;;;22.30;99.90;;;;;;5115680;27;20062;-64
2023/09/07 07:42:39;;;;;;;5.78;4.75;;;22.40;99.90;;;;;;5115543;27;20043;-63
2023/09/07 07:45:05;;;;;;;6.93;4.68;;;22.50;99.90;;;;;;5115703;27;20043;-63
2023/09/07 07:47:31;;;;;;;6.50;4.40;;;22.60;99.90;;;;;;5114847;27;20043;-64
2023/09/07 07:49:56;;;;;;;5.38;4.20;;;22.80;99.90;;;;;;5134006;27;20042;-64
2023/09/07 07:52:22;;;;;;;4.72;4.05;;;22.90;99.90;;;;;;5115564;27;20394;-63
2023/09/07 07:54:48;;;;;;;5.28;4.72;;;23.00;99.90;;;;;;5115676;27;20038;-63
2023/09/07 07:57:13;;;;;;;5.55;4.60;;;23.10;99.90;;;;;;5115591;27;20043;-64
2023/09/07 07:59:39;;;;;;;5.72;4.13;;;23.20;99.90;;;;;;5115313;27;20038;-63
2023/09/07 08:02:05;;;;;;;8.55;4.53;;;23.30;99.90;;;;;;5133862;27;20084;-63
2023/09/07 08:04:32;;;;;;;5.40;4.47;;;23.40;99.90;;;;;;5115515;27;20478;-64
2023/09/07 08:07:03;;;;;;;6.88;4.13;;;23.50;99.90;;;;;;5133551;27;20058;-63
2023/09/07 08:09:29;;;;;;;6.13;4.38;;;23.60;99.90;;;;;;5114999;27;20035;-63
2023/09/07 08:11:55;;;;;;;4.93;3.92;;;23.80;99.90;;;;;;5114084;27;20508;-63
2023/09/07 08:14:22;;;;;;;8.10;4.25;;;23.90;99.90;;;;;;5120329;27;20062;-63
2023/09/07 08:16:48;;;;;;;9.55;4.13;;;24.00;99.90;;;;;;5114562;27;20031;-63
2023/09/07 08:19:14;;;;;;;6.78;4.32;;;24.10;99.90;;;;;;5099930;27;20570;-63
2023/09/07 08:21:42;;;;;;;5.53;4.50;;;24.10;99.90;;;;;;5132812;27;20057;-63
2023/09/07 08:24:08;;;;;;;6.43;4.60;;;24.10;99.90;;;;;;5132958;27;20128;-63
2023/09/07 08:26:35;;;;;;;6.65;4.15;;;24.20;99.90;;;;;;5114376;27;20403;-63
2023/09/07 08:29:05;;;;;;;6.15;3.90;;;24.40;99.90;;;;;;5114528;27;20409;-63
2023/09/07 08:31:33;;;;;;;6.20;4.35;;;24.50;99.90;;;;;;5115495;27;20043;-64
2023/09/07 08:34:03;;;;;;;6.57;3.75;;;24.60;99.90;;;;;;5114398;27;20039;-64
2023/09/07 08:36:32;;;;;;;6.15;4.13;;;24.60;99.90;;;;;;5114468;27;20078;-63
2023/09/07 08:39:01;;;;;;;5.47;4.57;;;24.60;99.90;;;;;;5113835;27;20082;-63
2023/09/07 08:41:27;;;;;;;6.85;4.10;;;24.80;99.90;;;;;;5114653;27;20125;-64
2023/09/07 08:43:55;;;;;;;6.20;4.47;;;24.80;99.90;;;;;;5114132;27;20035;-64
2023/09/07 08:46:23;;;;;;;5.88;4.22;;;25.00;99.70;;;;;;5114254;27;20431;-64
2023/09/07 08:48:49;;;;;;;7.50;4.43;;;25.00;99.40;;;;;;5114446;27;20054;-64
2023/09/07 08:51:17;;;;;;;6.45;4.35;;;25.20;99.70;;;;;;5114118;27;20043;-63
2023/09/07 08:53:46;;;;;;;5.07;3.97;;;25.30;99.50;;;;;;5113950;27;20389;-63
2023/09/07 08:56:12;;;;;;;6.63;4.25;;;25.40;99.00;;;;;;5113924;27;20091;-63
2023/09/07 08:58:40;;;;;;;6.25;4.05;;;25.50;99.00;;;;;;5113431;27;20405;-64
2023/09/07 09:01:05;;;;;;;5.72;4.32;;;25.50;98.30;;;;;;5114249;27;20054;-63
2023/09/07 09:03:31;;;;;;;5.80;4.10;;;25.60;98.10;;;;;;5113880;27;20035;-64
2023/09/07 09:05:57;;;;;;;6.13;4.53;;;25.70;98.40;;;;;;5131878;27;20047;-63
2023/09/07 09:08:24;;;;;;;8.18;4.47;;;25.80;97.80;;;;;;5136231;27;20473;-64
2023/09/07 09:11:00;;;;;;;6.63;4.00;;;25.80;97.50;;;;;;5132026;27;20432;-64
2023/09/07 09:13:32;;;;;;;4.97;4.22;;;25.90;97.20;;;;;;5113635;27;20114;-63
2023/09/07 09:16:01;;;;;;;5.97;4.40;;;26.00;97.30;;;;;;5131676;27;20149;-64
2023/09/07 09:18:27;;;;;;;6.15;4.28;;;26.10;97.30;;;;;;5113655;27;20047;-64
2023/09/07 09:21:01;;;;;;;7.22;4.40;;;26.30;96.90;;;;;;5127520;27;1252375;-65
2023/09/07 09:23:34;;;;;;;5.60;4.10;;;26.30;96.40;;;;;;5130332;27;20047;-65
2023/09/07 09:26:04;;;;;;;6.25;3.95;;;26.40;96.30;;;;;;5129844;27;20741;-66
2023/09/07 09:28:31;;;;;;;6.25;4.05;;;26.50;96.50;;;;;;5131012;27;20401;-66
2023/09/07 09:31:02;;;;;;;5.97;3.83;;;26.70;96.20;;;;;;5130633;27;20043;-66
2023/09/07 09:33:30;;;;;;;7.60;3.90;;;26.90;97.00;;;;;;5130873;27;20043;-66
2023/09/07 09:35:56;;;;;;;10.23;4.60;;;27.00;96.40;;;;;;5130911;27;20070;-66
2023/09/07 09:38:22;;;;;;;5.72;4.15;;;27.00;95.50;;;;;;5130107;27;20043;-66
2023/09/07 09:40:48;;;;;;;7.47;4.50;;;27.10;95.70;;;;;;5130258;27;20049;-66
2023/09/07 09:43:14;;;;;;;6.50;4.35;;;27.20;95.30;;;;;;5130666;27;20093;-66
2023/09/07 09:45:40;;;;;;;7.53;4.63;;;27.30;95.40;;;;;;5149063;27;20027;-65
2023/09/07 09:48:06;;;;;;;5.40;4.90;;;27.40;95.00;;;;;;5130198;27;20039;-66
2023/09/07 09:50:38;;;;;;;4.63;3.70;;;27.50;94.70;;;;;;5130750;27;20598;-66
2023/09/07 09:53:06;;;;;;;7.18;4.20;;;27.60;94.90;;;;;;5130151;27;20043;-66
2023/09/07 09:55:33;;;;;;;4.85;4.18;;;27.60;94.20;;;;;;5124722;27;20051;-65
2023/09/07 09:57:59;;;;;;;7.95;4.10;;;27.60;93.80;;;;;;5130210;27;20053;-66
2023/09/07 10:03:17;;;;;;;8.73;3.55;;;27.90;94.00;;;;;;5130091;27;20055;-66
2023/09/07 10:05:46;;;;;;;7.88;4.63;;;28.10;93.90;;;;;;5130276;27;20034;-66
2023/09/07 10:08:13;;;;;;;6.82;4.00;;;28.10;93.10;;;;;;5130088;27;20038;-66
2023/09/07 10:10:42;;;;;;;6.00;3.58;;;28.30;93.10;;;;;;5148697;27;20079;-66
2023/09/07 10:13:07;;;;;;;8.27;3.60;;;28.50;93.30;;;;;;5148323;27;20123;-66
2023/09/07 10:15:35;;;;;;;5.00;3.40;;;28.70;93.40;;;;;;5148465;27;20500;-66
2023/09/07 10:18:11;;;;;;;8.02;3.97;;;28.70;92.70;;;;;;5148320;27;20103;-66
2023/09/07 10:20:58;;;;;;;5.78;3.95;;;29.00;92.70;;;;;;5129439;27;20533;-66
2023/09/07 10:23:34;;;;;;;6.45;3.47;;;29.10;91.80;;;;;;5129965;27;20039;-66
2023/09/07 10:26:03;;;;;;;5.50;3.65;;;29.40;91.90;;;;;;5129439;27;20046;-66
2023/09/07 10:28:29;;;;;;;4.85;3.92;;;29.50;91.20;;;;;;5129792;27;20039;-66
2023/09/07 10:31:06;;;;;;;4.45;3.67;;;29.60;91.00;;;;;;5124205;27;20046;-66
2023/09/07 10:33:34;;;;;;;5.35;3.47;;;29.70;90.50;;;;;;5115907;27;20058;-66
2023/09/07 10:36:01;;;;;;;4.90;3.50;;;29.90;90.60;;;;;;5134411;27;20058;-66
2023/09/07 10:38:27;;;;;;;3.97;3.38;;;29.90;90.10;;;;;;5115976;27;20039;-66
2023/09/07 10:40:57;;;;;;;3.72;3.28;;;30.10;90.10;;;;;;5115612;27;20055;-65
2023/09/07 10:43:29;;;;;;;4.32;3.45;;;30.30;89.80;;;;;;5134123;27;20094;-66
2023/09/07 10:46:00;;;;;;;4.97;3.08;;;30.50;89.50;;;;;;5115762;27;20355;-66
2023/09/07 10:48:28;;;;;;;3.92;3.47;;;30.60;89.70;;;;;;5115544;27;20050;-66
2023/09/07 10:50:54;;;;;;;4.95;3.60;;;30.70;88.00;;;;;;5115839;27;20091;-66
2023/09/07 10:53:31;;;;;;;4.90;3.40;;;30.80;88.00;;;;;;5115699;27;20035;-66
2023/09/07 10:56:03;;;;;;;4.15;3.30;;;30.90;88.00;;;;;;5115570;27;20042;-66
2023/09/07 10:58:33;;;;;;;4.30;3.55;;;31.00;87.40;;;;;;5115479;27;20080;-66
2023/09/07 11:01:00;;;;;;;5.75;3.30;;;31.20;87.40;;;;;;5111987;27;20039;-66
2023/09/07 11:03:27;;;;;;;5.40;3.47;;;31.20;86.50;;;;;;5132178;27;20038;-66
2023/09/07 11:06:00;;;;;;;4.28;3.10;;;31.20;86.40;;;;;;5133794;27;20520;-66
2023/09/07 11:08:26;;;;;;;4.43;3.20;;;31.20;85.50;;;;;;5097149;27;20055;-66
2023/09/07 11:10:52;;;;;;;4.80;3.17;;;31.30;85.40;;;;;;5114673;27;20051;-66
2023/09/07 11:13:18;;;;;;;5.05;3.20;;;31.30;85.20;;;;;;5114424;27;20134;-66
2023/09/07 11:15:44;;;;;;;7.03;3.40;;;31.30;85.90;;;;;;5133279;27;20477;-66
2023/09/07 11:18:09;;;;;;;6.32;3.08;;;31.50;85.70;;;;;;5096986;27;20130;-66
2023/09/07 11:20:36;;;;;;;4.93;3.20;;;31.60;84.40;;;;;;5114449;27;20394;-66
2023/09/07 11:23:02;;;;;;;4.47;3.20;;;31.60;83.50;;;;;;5114914;27;20546;-66
2023/09/07 11:25:35;;;;;;;3.53;3.17;;;31.70;83.90;;;;;;5114629;27;20110;-66
2023/09/07 11:28:02;;;;;;;3.88;3.13;;;31.80;82.60;;;;;;5114778;27;20057;-66
2023/09/07 11:30:29;;;;;;;12.70;4.95;;;31.90;83.60;;;;;;5114461;27;20081;-66
2023/09/07 11:33:21;;;;;;;4.35;3.08;;;31.90;82.30;;;;;;5114306;27;20091;-66
2023/09/07 11:35:47;;;;;;;4.50;3.17;;;31.80;81.90;;;;;;5110323;27;20086;-66
2023/09/07 11:38:15;;;;;;;5.97;2.95;;;31.90;82.60;;;;;;5114337;27;20086;-66
2023/09/07 11:40:44;;;;;;;7.00;3.30;;;31.90;81.80;;;;;;5114139;27;20040;-66
2023/09/07 11:43:11;;;;;;;5.20;3.00;;;31.90;80.70;;;;;;5113138;27;20043;-66
2023/09/07 11:45:36;;;;;;;4.28;2.83;;;31.90;80.70;;;;;;5096878;27;20039;-66
2023/09/07 11:48:02;;;;;;;4.43;3.13;;;31.80;81.40;;;;;;5113495;27;20038;-66
2023/09/07 11:50:31;;;;;;;5.22;3.05;;;31.80;80.70;;;;;;5114092;27;20123;-66
2023/09/07 11:52:56;;;;;;;5.28;3.08;;;31.90;80.50;;;;;;5114283;27;20123;-66
2023/09/07 11:55:22;;;;;;;4.70;2.80;;;31.70;79.50;;;;;;5114078;27;20082;-66
2023/09/07 11:57:51;;;;;;;5.63;3.28;;;31.70;79.60;;;;;;5114964;27;20039;-64
2023/09/07 12:00:17;;;;;;;3.83;2.90;;;31.60;78.80;;;;;;5113963;27;20095;-65
2023/09/07 12:02:43;;;;;;;8.85;3.40;;;31.40;78.40;;;;;;5132278;27;20125;-65
2023/09/07 12:05:09;;;;;;;3.70;3.10;;;31.30;78.90;;;;;;5114168;27;20114;-65
2023/09/07 12:07:36;;;;;;;3.35;3.05;;;31.20;78.30;;;;;;5114009;27;20131;-65
2023/09/07 12:10:02;;;;;;;7.30;3.10;;;30.90;78.00;;;;;;5096507;27;20051;-65
2023/09/07 12:12:28;;;;;;;4.07;3.03;;;30.70;77.40;;;;;;5114061;27;20512;-65
2023/09/07 12:14:56;;;;;;;8.90;3.20;;;30.60;77.60;;;;;;5113735;27;20035;-65
2023/09/07 12:17:24;;;;;;;3.63;2.65;;;30.50;78.00;;;;;;5132397;27;20034;-65
2023/09/07 12:19:50;;;;;;;5.95;2.80;;;30.30;77.80;;;;;;5095902;27;20100;-65
2023/09/07 12:22:16;;;;;;;7.40;3.00;;;30.20;76.80;;;;;;5113703;27;20043;-65
2023/09/07 12:24:41;;;;;;;3.53;2.80;;;30.10;76.20;;;;;;5113716;27;20143;-66
2023/09/07 12:27:07;;;;;;;5.32;2.97;;;30.00;76.20;;;;;;5114132;27;20448;-65
2023/09/07 12:29:33;;;;;;;4.30;2.90;;;29.90;76.70;;;;;;5113574;27;20105;-65
2023/09/07 12:31:58;;;;;;;3.10;2.80;;;29.80;76.20;;;;;;5131925;27;20039;-65
2023/09/07 12:34:25;;;;;;;7.18;2.80;;;29.70;76.30;;;;;;5096689;27;20379;-65
2023/09/07 12:36:50;;;;;;;5.43;2.58;;;29.70;75.60;;;;;;5113616;27;20086;-65
2023/09/07 12:39:17;;;;;;;6.28;3.20;;;29.60;74.80;;;;;;5113682;27;20449;-65
2023/09/07 12:41:43;;;;;;;4.53;2.97;;;29.50;74.10;;;;;;5113271;27;20119;-65
2023/09/07 12:44:08;;;;;;;4.75;2.80;;;29.40;74.10;;;;;;5113640;28;20122;-65
2023/09/07 12:46:37;;;;;;;5.80;3.17;;;29.30;73.40;;;;;;5113625;27;20050;-65